Time;durP1;ratioP1;P1;durP2;ratioP2;P2;SDS_P1;SDS_P2;PMS_P1;PMS_P2;Temp;Humidity;BMP_temperature;BMP_pressure;BME280_temperature;BME280_humidity;BME280_pressure;Samples;Min_cycle;Max_cycle;Signal;HPM_P1;HPM_P2
2022/08/19 00:00:23;;;;;;;12.20;6.60;;;;;;;21.53;100.00;100499.47;4995996;28;20480;-75
2022/08/19 00:02:49;;;;;;;11.10;6.50;;;;;;;21.54;100.00;100493.56;4996037;28;20627;-75
2022/08/19 00:05:18;;;;;;;10.33;6.30;;;;;;;21.57;100.00;100487.31;4995871;28;20473;-75
2022/08/19 00:07:45;;;;;;;11.30;7.60;;;;;;;21.57;100.00;100484.53;4996122;28;20452;-75
2022/08/19 00:10:14;;;;;;;10.40;6.40;;;;;;;21.65;100.00;100488.97;4995992;28;20472;-74
2022/08/19 00:12:43;;;;;;;11.90;7.33;;;;;;;21.68;100.00;100490.16;4995667;28;20957;-75
2022/08/19 00:15:13;;;;;;;9.70;6.37;;;;;;;21.69;100.00;100486.22;4995993;28;20445;-75
2022/08/19 00:17:40;;;;;;;19.83;7.20;;;;;;;21.71;100.00;100478.38;4995982;28;20444;-75
2022/08/19 00:20:10;;;;;;;10.73;7.23;;;;;;;21.73;100.00;100483.50;4995757;28;20501;-75
2022/08/19 00:22:36;;;;;;;13.17;7.50;;;;;;;21.74;100.00;100487.88;4995815;28;20532;-75
2022/08/19 00:25:03;;;;;;;8.30;5.63;;;;;;;21.73;100.00;100489.03;4995853;28;20456;-75
2022/08/19 00:27:30;;;;;;;10.40;6.30;;;;;;;21.68;100.00;100470.84;4995774;28;20445;-74
2022/08/19 00:29:58;;;;;;;11.17;6.40;;;;;;;21.73;100.00;100473.25;4995633;28;20465;-74
2022/08/19 00:32:25;;;;;;;10.03;6.10;;;;;;;21.73;100.00;100473.25;4995130;28;20964;-74
2022/08/19 00:34:53;;;;;;;10.07;5.97;;;;;;;21.71;100.00;100475.63;4995527;28;20549;-76
2022/08/19 00:37:22;;;;;;;8.90;5.53;;;;;;;21.77;100.00;100484.34;4995557;28;20457;-74
2022/08/19 00:39:48;;;;;;;13.30;5.83;;;;;;;21.83;100.00;100482.84;4995587;28;20487;-75
2022/08/19 00:42:15;;;;;;;10.47;6.40;;;;;;;21.88;100.00;100482.47;4995273;28;20951;-75
2022/08/19 00:44:42;;;;;;;10.30;6.00;;;;;;;21.90;100.00;100483.66;4995459;28;20535;-75
2022/08/19 00:47:11;;;;;;;11.10;6.43;;;;;;;21.92;100.00;100481.34;4995420;28;20445;-75
2022/08/19 00:49:42;;;;;;;9.83;6.43;;;;;;;21.94;100.00;100480.16;4995034;28;20461;-75
2022/08/19 00:52:13;;;;;;;8.53;5.80;;;;;;;21.88;100.00;100488.78;4995139;28;20958;-75
2022/08/19 00:54:40;;;;;;;8.20;5.40;;;;;;;21.89;100.00;100484.84;4995288;28;20457;-75
2022/08/19 01:17:19;;;;;;;10.83;4.80;;;;;;;21.94;100.00;100466.38;5131206;27;20556;-69
2022/08/19 01:19:47;;;;;;;9.50;6.30;;;;;;;21.85;100.00;100473.00;5131113;28;20442;-69
2022/08/19 01:22:20;;;;;;;8.87;5.33;;;;;;;21.85;100.00;100463.94;5155388;22;20478;-73
2022/08/19 01:24:48;;;;;;;7.77;4.90;;;;;;;21.77;100.00;100470.53;5131029;28;20471;-73
2022/08/19 01:27:14;;;;;;;9.43;5.13;;;;;;;21.71;100.00;100469.31;5131272;28;20435;-74
2022/08/19 01:29:43;;;;;;;8.73;5.80;;;;;;;21.70;100.00;100476.78;5130902;28;20453;-73
2022/08/19 01:32:13;;;;;;;9.67;5.40;;;;;;;21.69;100.00;100479.91;5131120;28;20462;-73
2022/08/19 01:34:40;;;;;;;9.00;5.37;;;;;;;21.68;100.00;100492.91;5130876;28;20423;-73
2022/08/19 01:37:10;;;;;;;8.57;5.17;;;;;;;21.69;100.00;100493.69;5130741;28;20464;-72
2022/08/19 01:39:38;;;;;;;14.67;7.17;;;;;;;21.65;100.00;100510.22;5130746;28;20923;-73
2022/08/19 01:42:09;;;;;;;9.47;6.07;;;;;;;21.67;100.00;100505.13;5130867;28;20865;-73
2022/08/19 01:44:37;;;;;;;9.93;5.90;;;;;;;21.61;100.00;100506.66;5130496;28;20905;-71
2022/08/19 01:47:03;;;;;;;9.20;5.33;;;;;;;21.61;100.00;100515.69;5130841;28;20484;-72
2022/08/19 01:49:30;;;;;;;8.27;5.77;;;;;;;21.62;100.00;100520.03;5130760;28;20430;-72
2022/08/19 01:51:57;;;;;;;9.73;6.20;;;;;;;21.64;100.00;100530.69;5130740;28;20466;-72
2022/08/19 01:54:25;;;;;;;11.17;5.50;;;;;;;21.64;100.00;100531.47;5130654;28;20431;-72
2022/08/19 01:56:52;;;;;;;10.70;6.10;;;;;;;21.59;100.00;100520.78;5130612;28;20439;-72
2022/08/19 01:59:23;;;;;;;10.27;6.57;;;;;;;21.56;100.00;100523.50;5130526;28;20451;-72
2022/08/19 02:01:50;;;;;;;12.53;6.73;;;;;;;21.54;100.00;100521.13;5131076;28;20427;-72
2022/08/19 02:04:16;;;;;;;11.30;5.90;;;;;;;21.53;100.00;100529.78;5130522;28;20792;-72
2022/08/19 02:06:43;;;;;;;15.70;6.30;;;;;;;21.56;100.00;100542.78;5130029;28;20482;-72
2022/08/19 02:09:09;;;;;;;13.33;5.67;;;;;;;21.49;100.00;100545.47;5130360;28;20434;-72
2022/08/19 02:11:37;;;;;;;7.70;4.83;;;;;;;21.44;100.00;100545.81;5130226;28;20443;-72
2022/08/19 02:14:07;;;;;;;9.53;6.20;;;;;;;21.37;100.00;100544.56;5130224;28;20449;-74
2022/08/19 02:16:38;;;;;;;10.20;6.33;;;;;;;21.37;100.00;100532.72;5126025;28;20442;-74
2022/08/19 02:19:05;;;;;;;10.50;6.50;;;;;;;21.36;100.00;100514.63;5117050;28;20534;-78
2022/08/19 02:21:31;;;;;;;11.63;6.43;;;;;;;21.28;100.00;100502.69;5119692;28;20439;-78
2022/08/19 02:23:59;;;;;;;10.90;7.00;;;;;;;21.24;100.00;100493.59;5118415;28;20444;-71
2022/08/19 02:26:26;;;;;;;9.40;5.77;;;;;;;21.15;100.00;100487.56;5116137;28;20547;-73
2022/08/19 02:28:54;;;;;;;12.20;6.87;;;;;;;21.15;100.00;100479.31;5116336;28;20482;-71
2022/08/19 02:31:22;;;;;;;12.00;7.47;;;;;;;21.11;100.00;100475.72;5116189;28;20435;-71
2022/08/19 02:33:52;;;;;;;14.40;6.93;;;;;;;21.09;100.00;100454.06;5116255;28;20464;-71
2022/08/19 02:36:19;;;;;;;15.03;6.43;;;;;;;21.04;100.00;100429.63;5116149;28;20443;-71
2022/08/19 02:38:44;;;;;;;14.20;7.43;;;;;;;20.99;100.00;100404.38;5116122;28;20440;-72
2022/08/19 02:41:15;;;;;;;13.00;8.40;;;;;;;20.92;100.00;100399.56;5116214;28;20434;-72
2022/08/19 02:43:42;;;;;;;16.17;8.47;;;;;;;20.80;100.00;100389.56;5115724;28;20222;-72
2022/08/19 02:46:17;;;;;;;14.53;8.53;;;;;;;20.77;100.00;100387.59;5116170;28;20487;-72
2022/08/19 02:48:44;;;;;;;13.67;9.07;;;;;;;20.66;100.00;100390.19;5115957;28;20461;-72
2022/08/19 02:51:17;;;;;;;16.33;8.70;;;;;;;20.62;100.00;100394.88;5115912;28;20432;-72
2022/08/19 02:53:44;;;;;;;20.43;9.00;;;;;;;20.58;100.00;100387.72;5115857;28;20485;-72
2022/08/19 02:56:10;;;;;;;15.43;8.63;;;;;;;20.56;100.00;100379.06;5115853;28;20440;-72
2022/08/19 02:58:37;;;;;;;12.90;8.70;;;;;;;20.61;100.00;100381.50;5115762;28;20439;-72
2022/08/19 03:01:03;;;;;;;14.57;8.87;;;;;;;20.66;100.00;100386.66;5115400;28;20933;-72
2022/08/19 03:03:31;;;;;;;14.23;8.77;;;;;;;20.59;100.00;100378.34;5115355;28;20464;-72
2022/08/19 03:06:10;;;;;;;18.43;9.57;;;;;;;20.57;100.00;100383.41;5115531;28;20483;-71
2022/08/19 03:08:41;;;;;;;15.97;8.53;;;;;;;20.52;100.00;100372.72;5115623;28;20518;-72
2022/08/19 03:11:13;;;;;;;12.70;7.47;;;;;;;20.51;100.00;100382.16;5115339;28;20415;-72
2022/08/19 03:13:39;;;;;;;14.90;7.57;;;;;;;20.45;100.00;100397.34;5115075;28;20455;-71
2022/08/19 03:16:06;;;;;;;12.67;7.67;;;;;;;20.53;100.00;100399.84;5115441;28;20881;-71
2022/08/19 03:18:33;;;;;;;21.47;8.60;;;;;;;20.53;100.00;100397.09;5115318;28;20447;-71
2022/08/19 03:21:00;;;;;;;11.97;7.93;;;;;;;20.54;100.00;100389.66;5115362;28;20492;-72
2022/08/19 03:23:26;;;;;;;11.67;7.60;;;;;;;20.53;100.00;100385.31;5114901;28;20972;-72
2022/08/19 03:25:54;;;;;;;12.63;7.73;;;;;;;20.51;100.00;100385.69;5115159;28;20486;-72
2022/08/19 03:28:21;;;;;;;16.00;9.43;;;;;;;20.55;100.00;100383.00;5113820;28;20435;-71
2022/08/19 03:30:58;;;;;;;11.83;7.40;;;;;;;20.59;100.00;100386.59;5115065;28;20442;-72
2022/08/19 03:33:25;;;;;;;10.50;6.30;;;;;;;20.55;100.00;100397.53;5114915;28;20486;-71
2022/08/19 03:36:11;;;;;;;10.77;6.63;;;;;;;20.60;100.00;100399.19;5114933;28;20451;-71
2022/08/19 03:38:42;;;;;;;12.20;7.20;;;;;;;20.69;100.00;100401.66;5114647;28;20428;-72
2022/08/19 03:41:13;;;;;;;13.07;7.57;;;;;;;20.73;100.00;100388.72;5114901;28;20422;-71
2022/08/19 03:43:41;;;;;;;13.90;8.13;;;;;;;20.67;100.00;100379.97;5114806;28;20464;-71
2022/08/19 03:46:10;;;;;;;15.27;8.23;;;;;;;20.66;100.00;100378.41;5114709;28;20486;-72
2022/08/19 03:48:38;;;;;;;11.53;7.27;;;;;;;20.65;100.00;100382.34;5114656;28;20440;-72
2022/08/19 03:51:05;;;;;;;11.50;7.67;;;;;;;20.64;100.00;100391.75;5114458;28;20948;-72
2022/08/19 03:53:34;;;;;;;12.90;7.60;;;;;;;20.66;100.00;100390.19;5114271;28;20969;-72
2022/08/19 03:56:01;;;;;;;13.70;7.60;;;;;;;20.69;100.00;100388.66;5114615;28;20440;-71
2022/08/19 03:58:30;;;;;;;9.80;6.53;;;;;;;20.72;100.00;100398.13;5114560;28;20446;-72
2022/08/19 04:00:57;;;;;;;14.00;7.63;;;;;;;20.66;100.00;100397.66;5114317;28;20938;-72
2022/08/19 04:03:24;;;;;;;9.90;6.67;;;;;;;20.66;100.00;100400.44;5114519;28;20463;-71
2022/08/19 04:05:50;;;;;;;12.10;7.17;;;;;;;20.69;100.00;100404.41;5114500;28;20476;-71
2022/08/19 04:08:18;;;;;;;12.90;7.20;;;;;;;20.65;100.00;100399.63;5114467;28;20436;-71
2022/08/19 04:10:45;;;;;;;9.83;6.27;;;;;;;20.60;100.00;100390.91;5114396;28;20452;-71
2022/08/19 04:13:11;;;;;;;12.13;7.17;;;;;;;20.61;100.00;100392.50;5114311;28;20464;-71
2022/08/19 04:15:41;;;;;;;11.40;6.83;;;;;;;20.64;100.00;100395.31;5114263;28;20442;-71
2022/08/19 04:18:09;;;;;;;10.67;7.47;;;;;;;20.68;100.00;100395.34;5114121;28;20435;-71
2022/08/19 04:20:41;;;;;;;10.90;6.90;;;;;;;20.68;100.00;100394.56;5114142;28;20439;-73
2022/08/19 04:23:07;;;;;;;11.10;6.47;;;;;;;20.65;100.00;100398.84;5113704;28;20506;-76
2022/08/19 04:25:38;;;;;;;14.30;6.83;;;;;;;20.70;100.00;100404.00;5113940;28;20439;-75
2022/08/19 04:28:05;;;;;;;10.97;7.20;;;;;;;20.69;100.00;100415.41;5114166;28;20427;-76
2022/08/19 04:30:37;;;;;;;14.63;7.53;;;;;;;20.72;100.00;100418.22;5114215;28;20443;-77
2022/08/19 04:33:05;;;;;;;14.07;7.63;;;;;;;20.73;100.00;100419.00;5114232;28;20459;-73
2022/08/19 04:35:36;;;;;;;11.50;7.33;;;;;;;20.75;100.00;100417.44;5113894;28;20446;-72
2022/08/19 04:38:03;;;;;;;11.10;7.07;;;;;;;20.73;100.00;100417.03;5113691;28;20455;-72
2022/08/19 04:43:15;;;;;;;12.80;8.17;;;;;;;20.74;100.00;100418.63;5113707;28;20465;-72
2022/08/19 04:45:42;;;;;;;11.97;7.13;;;;;;;20.77;100.00;100430.84;5113394;28;20440;-72
2022/08/19 04:48:10;;;;;;;11.33;5.77;;;;;;;20.81;100.00;100428.94;5113534;28;20961;-71
2022/08/19 04:50:37;;;;;;;13.27;7.33;;;;;;;20.77;100.00;100422.59;5113807;28;20882;-71
2022/08/19 04:53:04;;;;;;;11.23;6.70;;;;;;;20.77;100.00;100417.88;5113724;28;20460;-72
2022/08/19 04:55:31;;;;;;;12.63;7.43;;;;;;;20.83;100.00;100421.09;5113749;28;20791;-71
2022/08/19 04:57:57;;;;;;;14.33;7.07;;;;;;;20.81;100.00;100412.44;5113714;28;20556;-72
2022/08/19 05:00:24;;;;;;;12.03;6.70;;;;;;;20.82;100.00;100409.28;5113625;28;20444;-71
2022/08/19 05:02:51;;;;;;;10.23;6.93;;;;;;;20.84;100.00;100415.19;5113545;28;20464;-72
2022/08/19 05:05:19;;;;;;;10.30;6.07;;;;;;;20.82;100.00;100419.50;5113392;28;20440;-71
2022/08/19 05:07:46;;;;;;;10.47;6.50;;;;;;;20.84;100.00;100423.47;5113501;28;20479;-71
2022/08/19 05:10:13;;;;;;;10.30;6.50;;;;;;;20.91;100.00;100422.78;5113568;28;20450;-72
2022/08/19 05:12:39;;;;;;;17.70;7.40;;;;;;;20.96;100.00;100419.69;5113499;28;20483;-71
2022/08/19 05:15:08;;;;;;;11.30;6.53;;;;;;;20.90;100.00;100416.47;5113354;28;20799;-72
2022/08/19 05:17:35;;;;;;;8.60;7.00;;;;;;;20.94;100.00;100404.69;5113622;28;20471;-70
2022/08/19 05:22:52;;;;;;;11.37;6.77;;;;;;;21.07;100.00;100397.75;5037363;28;20474;-72
2022/08/19 05:25:21;;;;;;;11.50;6.67;;;;;;;21.09;100.00;100390.72;5113130;28;20427;-71
2022/08/19 05:27:48;;;;;;;14.03;7.93;;;;;;;21.11;100.00;100379.31;5113340;28;20487;-72
2022/08/19 05:30:15;;;;;;;14.53;7.80;;;;;;;21.14;100.00;100384.84;5113084;28;20934;-74
2022/08/19 05:32:42;;;;;;;13.40;7.37;;;;;;;21.24;100.00;100375.09;5113043;28;20977;-73
2022/08/19 05:35:09;;;;;;;10.87;7.17;;;;;;;21.31;100.00;100383.50;5112966;28;20818;-73
2022/08/19 05:37:35;;;;;;;13.13;6.97;;;;;;;21.41;100.00;100391.06;5113376;28;20435;-73
2022/08/19 05:40:04;;;;;;;11.53;6.90;;;;;;;21.49;100.00;100393.91;5113302;28;20443;-73
2022/08/19 05:42:31;;;;;;;11.23;7.33;;;;;;;21.57;100.00;100393.56;5113333;28;20466;-73
2022/08/19 05:44:57;;;;;;;9.70;6.63;;;;;;;21.66;100.00;100396.03;5113351;28;20499;-73
2022/08/19 05:47:24;;;;;;;13.13;6.70;;;;;;;21.71;100.00;100398.41;5113199;28;20479;-73
2022/08/19 05:49:56;;;;;;;9.13;6.83;;;;;;;21.79;100.00;100400.06;5113213;28;20435;-72
2022/08/19 05:52:22;;;;;;;12.60;6.93;;;;;;;21.86;100.00;100400.09;5114869;28;20470;-72
2022/08/19 05:54:50;;;;;;;11.43;7.30;;;;;;;21.86;100.00;100404.84;5117139;28;20443;-72
2022/08/19 05:57:19;;;;;;;13.97;8.20;;;;;;;21.82;100.00;100404.78;5116795;28;20942;-73
2022/08/19 05:59:48;;;;;;;14.87;7.30;;;;;;;21.85;100.00;100404.03;5117052;28;20438;-73
2022/08/19 06:02:14;;;;;;;12.80;8.07;;;;;;;21.85;100.00;100411.53;5117859;28;20881;-78
2022/08/19 06:04:42;;;;;;;19.10;9.10;;;;;;;21.93;100.00;100413.16;5117315;28;20431;-75
2022/08/19 06:07:09;;;;;;;12.70;6.03;;;;;;;21.91;100.00;100413.56;5116931;28;20551;-71
2022/08/19 06:09:37;;;;;;;9.70;6.07;;;;;;;22.01;100.00;100419.53;5116769;28;20541;-72
2022/08/19 06:12:04;;;;;;;11.53;6.93;;;;;;;22.04;100.00;100422.31;5116400;28;20467;-72
2022/08/19 06:14:34;;;;;;;14.53;7.23;;;;;;;22.10;100.00;100428.28;5116652;28;20897;-72
2022/08/19 06:17:03;;;;;;;12.50;7.23;;;;;;;22.03;100.00;100430.97;5118343;28;20469;-79
2022/08/19 06:19:31;;;;;;;11.93;5.93;;;;;;;22.02;100.00;100424.66;5117133;28;20478;-72
2022/08/19 06:21:59;;;;;;;15.17;7.50;;;;;;;22.02;100.00;100424.66;5116347;28;20467;-72
2022/08/19 06:24:27;;;;;;;8.50;5.37;;;;;;;22.07;100.00;100413.28;5116603;28;20453;-73
2022/08/19 06:26:55;;;;;;;12.67;7.33;;;;;;;22.05;100.00;100412.88;5116311;28;20487;-72
2022/08/19 06:29:25;;;;;;;13.63;7.10;;;;;;;22.12;100.00;100395.59;5116410;28;20527;-72
2022/08/19 06:31:55;;;;;;;11.03;6.40;;;;;;;22.16;100.00;100402.72;5116000;28;20985;-72
2022/08/19 06:34:22;;;;;;;9.57;6.60;;;;;;;22.20;100.00;100401.97;5116334;28;20424;-72
2022/08/19 06:36:52;;;;;;;14.53;6.43;;;;;;;22.26;100.00;100412.25;5116223;28;20492;-71
2022/08/19 06:39:24;;;;;;;9.90;6.00;;;;;;;22.40;100.00;100426.16;5115859;28;20814;-72
2022/08/19 06:41:53;;;;;;;11.80;6.80;;;;;;;22.41;100.00;100424.97;5115987;28;20803;-72
2022/08/19 06:44:21;;;;;;;10.57;7.50;;;;;;;22.44;100.00;100444.69;5116159;28;20447;-72
2022/08/19 06:46:48;;;;;;;9.80;5.63;;;;;;;22.44;100.00;100450.19;5116008;28;20479;-72
2022/08/19 06:49:17;;;;;;;10.47;6.87;;;;;;;22.38;100.00;100461.59;5115814;28;20431;-72
2022/08/19 06:51:47;;;;;;;10.90;7.63;;;;;;;22.48;100.00;100467.56;5115915;28;20444;-72
2022/08/19 06:54:14;;;;;;;11.33;6.40;;;;;;;22.44;100.00;100464.00;5115903;28;20451;-72
2022/08/19 06:56:41;;;;;;;10.07;5.90;;;;;;;22.40;100.00;100469.50;5115564;28;20862;-71
2022/08/19 06:59:10;;;;;;;12.43;7.10;;;;;;;22.44;100.00;100464.78;5115820;28;20440;-72
2022/08/19 07:01:38;;;;;;;8.87;5.50;;;;;;;22.41;100.00;100458.09;5115838;28;20462;-72
2022/08/19 07:04:05;;;;;;;10.30;6.50;;;;;;;22.46;100.00;100464.44;5115518;28;20440;-72
2022/08/19 07:06:33;;;;;;;12.20;6.80;;;;;;;22.49;100.00;100463.63;5115527;28;20547;-71
2022/08/19 07:09:00;;;;;;;12.53;7.90;;;;;;;22.54;100.00;100460.53;5115411;28;20960;-70
2022/08/19 07:11:27;;;;;;;11.00;6.90;;;;;;;22.50;100.00;100455.00;5115377;28;20473;-74
2022/08/19 07:13:57;;;;;;;10.90;6.93;;;;;;;22.53;100.00;100445.91;5115737;28;20455;-73
2022/08/19 07:16:23;;;;;;;13.90;7.03;;;;;;;22.48;100.00;100448.25;5115932;28;20443;-70
2022/08/19 07:18:51;;;;;;;13.37;7.10;;;;;;;22.50;100.00;100437.63;5115493;28;20446;-71
2022/08/19 07:21:19;;;;;;;15.10;6.70;;;;;;;22.58;100.00;100447.53;5115422;28;20446;-72
2022/08/19 07:23:48;;;;;;;12.33;6.83;;;;;;;22.62;100.00;100449.16;5114940;28;20475;-72
2022/08/19 07:26:18;;;;;;;13.30;7.57;;;;;;;22.61;100.00;100461.34;5115376;28;20462;-71
2022/08/19 07:28:46;;;;;;;11.30;6.77;;;;;;;22.51;100.00;100466.81;5114964;28;20428;-71
2022/08/19 07:31:14;;;;;;;12.37;7.80;;;;;;;22.46;100.00;100465.22;5115253;28;20436;-71
2022/08/19 07:33:42;;;;;;;9.40;6.83;;;;;;;22.24;100.00;100463.47;5115061;28;20466;-72
2022/08/19 07:36:12;;;;;;;10.50;6.30;;;;;;;22.02;100.00;100468.81;5115079;28;20446;-72
2022/08/19 07:38:40;;;;;;;13.10;8.90;;;;;;;21.89;100.00;100473.81;5114978;28;20442;-73
2022/08/19 07:41:09;;;;;;;12.57;8.23;;;;;;;21.78;100.00;100474.88;5114923;28;20471;-73
2022/08/19 07:43:36;;;;;;;12.03;8.07;;;;;;;21.71;100.00;100474.84;5114926;28;20455;-74
2022/08/19 07:46:03;;;;;;;13.67;8.50;;;;;;;21.73;100.00;100484.28;5114968;28;20467;-72
2022/08/19 07:48:29;;;;;;;15.00;7.50;;;;;;;21.75;100.00;100493.00;5114699;28;20479;-73
2022/08/19 07:50:59;;;;;;;18.33;7.93;;;;;;;21.73;100.00;100498.06;5114447;28;20439;-73
2022/08/19 07:53:26;;;;;;;12.57;7.87;;;;;;;21.76;100.00;100489.06;5114695;28;20464;-73
2022/08/19 07:55:52;;;;;;;14.57;8.50;;;;;;;21.77;100.00;100493.38;5114749;28;20443;-74
2022/08/19 07:58:22;;;;;;;12.00;7.90;;;;;;;21.79;100.00;100488.31;5114769;28;20439;-73
2022/08/19 08:00:50;;;;;;;13.07;8.87;;;;;;;21.82;100.00;100487.53;5114317;28;20809;-72
2022/08/19 08:03:20;;;;;;;17.37;9.47;;;;;;;21.84;100.00;100499.00;5114540;28;20463;-74
2022/08/19 08:11:18;;;;;;;13.47;8.37;;;;;;;21.99;100.00;100494.38;5114412;28;20407;-73
2022/08/19 08:13:48;;;;;;;16.10;9.10;;;;;;;22.08;100.00;100497.63;5114331;28;20463;-73
2022/08/19 08:16:14;;;;;;;12.77;7.73;;;;;;;22.12;100.00;100504.00;5113892;28;20443;-73
2022/08/19 08:18:43;;;;;;;14.60;8.60;;;;;;;22.13;100.00;100510.28;5114286;28;20440;-73
2022/08/19 08:21:09;;;;;;;12.83;7.97;;;;;;;22.12;100.00;100512.25;5113982;28;20965;-73
2022/08/19 08:23:36;;;;;;;15.70;8.83;;;;;;;22.17;100.00;100517.44;5113756;28;20471;-73
2022/08/19 08:26:04;;;;;;;13.10;8.00;;;;;;;22.23;100.00;100517.88;5114136;28;20441;-73
2022/08/19 08:28:31;;;;;;;12.53;8.17;;;;;;;22.27;100.00;100524.22;5113765;28;21024;-73
2022/08/19 08:30:59;;;;;;;12.40;7.80;;;;;;;22.26;100.00;100522.63;5114033;28;20443;-73
2022/08/19 08:33:29;;;;;;;13.80;8.97;;;;;;;22.22;100.00;100532.03;5113926;28;20853;-74
2022/08/19 08:35:56;;;;;;;13.83;8.53;;;;;;;22.25;100.00;100531.28;5113779;28;20489;-73
2022/08/19 08:38:22;;;;;;;13.17;8.63;;;;;;;22.28;100.00;100536.84;5113922;28;20857;-74
2022/08/19 08:40:54;;;;;;;13.87;7.60;;;;;;;22.35;100.00;100536.09;5113836;28;20448;-74
2022/08/19 08:43:26;;;;;;;12.47;8.53;;;;;;;22.35;100.00;100536.09;5113827;28;20463;-74
2022/08/19 08:45:59;;;;;;;11.60;7.97;;;;;;;22.30;100.00;100533.69;5120422;22;20528;-71
2022/08/19 08:48:35;;;;;;;14.03;9.40;;;;;;;22.27;100.00;100534.44;5093521;28;20477;-70
2022/08/19 08:51:05;;;;;;;14.73;8.87;;;;;;;22.29;100.00;100538.44;5093284;28;20431;-70
2022/08/19 08:53:33;;;;;;;12.30;8.27;;;;;;;22.31;100.00;100536.09;5093433;28;20445;-71
2022/08/19 08:56:03;;;;;;;15.10;9.37;;;;;;;22.29;100.00;100537.63;5093501;28;20469;-69
2022/08/19 08:58:41;;;;;;;17.00;8.90;;;;;;;22.35;100.00;100534.13;5093441;28;20482;-70
2022/08/19 09:01:11;;;;;;;18.23;9.90;;;;;;;22.40;100.00;100536.56;5093241;28;20956;-67
2022/08/19 09:03:40;;;;;;;17.00;8.73;;;;;;;22.42;100.00;100534.19;5093325;28;20432;-67
2022/08/19 09:06:12;;;;;;;20.53;8.17;;;;;;;22.37;100.00;100545.59;5093320;28;20456;-67
2022/08/19 09:08:45;;;;;;;10.40;7.47;;;;;;;22.37;100.00;100555.84;5093347;28;20464;-70
2022/08/19 09:11:20;;;;;;;12.43;7.37;;;;;;;22.32;100.00;100559.75;5093352;28;20428;-70
2022/08/19 09:14:08;;;;;;;15.27;8.07;;;;;;;22.35;100.00;100553.44;5093453;28;20811;-70
2022/08/19 09:16:35;;;;;;;15.57;9.43;;;;;;;22.36;100.00;100560.56;5093046;28;20462;-71
2022/08/19 09:19:06;;;;;;;17.67;10.00;;;;;;;22.36;100.00;100566.09;5093408;28;20786;-70
2022/08/19 09:21:34;;;;;;;12.80;8.33;;;;;;;22.33;100.00;100560.53;5093120;28;21002;-70
2022/08/19 09:24:01;;;;;;;13.50;7.70;;;;;;;22.37;100.00;100556.63;5093253;28;20454;-70
2022/08/19 09:26:29;;;;;;;17.20;7.97;;;;;;;22.33;100.00;100544.78;5093516;28;20472;-70
2022/08/19 09:28:57;;;;;;;14.70;8.47;;;;;;;22.38;100.00;100541.66;5097361;28;20484;-70
2022/08/19 09:31:26;;;;;;;13.50;8.07;;;;;;;22.37;100.00;100540.06;5097328;28;20458;-70
2022/08/19 09:33:56;;;;;;;15.87;10.30;;;;;;;22.45;100.00;100535.41;5097280;28;20436;-71
2022/08/19 09:36:28;;;;;;;17.97;10.20;;;;;;;22.47;100.00;100532.25;5097114;28;20452;-70
2022/08/19 09:38:56;;;;;;;12.80;7.87;;;;;;;22.54;100.00;100526.78;5097214;28;20516;-70
2022/08/19 09:41:25;;;;;;;12.00;7.37;;;;;;;22.57;100.00;100531.53;5096857;28;20979;-70
2022/08/19 09:43:53;;;;;;;15.40;8.73;;;;;;;22.59;100.00;100531.94;5097045;28;20452;-68
2022/08/19 09:46:21;;;;;;;18.10;9.33;;;;;;;22.59;100.00;100540.25;5096619;28;20566;-67
2022/08/19 09:48:50;;;;;;;15.73;9.60;;;;;;;22.62;100.00;100539.44;5096500;28;21043;-67
2022/08/19 09:51:19;;;;;;;14.63;8.70;;;;;;;22.64;100.00;100534.34;5096547;28;21045;-67
2022/08/19 09:53:49;;;;;;;11.87;8.77;;;;;;;22.57;100.00;100521.28;5096495;28;20946;-68
2022/08/19 09:56:18;;;;;;;14.10;7.20;;;;;;;22.70;100.00;100523.72;5096785;28;20464;-67
2022/08/19 09:58:44;;;;;;;13.73;8.37;;;;;;;22.81;100.00;100530.91;5096741;28;20432;-68
2022/08/19 10:01:16;;;;;;;13.53;8.37;;;;;;;22.92;100.00;100531.00;5096430;28;20938;-68
2022/08/19 10:03:43;;;;;;;12.77;8.00;;;;;;;22.92;100.00;100536.50;5096715;28;20428;-68
2022/08/19 10:06:09;;;;;;;15.13;9.60;;;;;;;22.99;100.00;100536.56;5096547;28;20460;-68
2022/08/19 10:08:39;;;;;;;21.43;9.50;;;;;;;23.05;100.00;100542.50;5096469;28;20549;-67
2022/08/19 10:11:08;;;;;;;16.43;9.10;;;;;;;23.11;100.00;100544.53;5096222;28;21011;-67
2022/08/19 10:13:35;;;;;;;13.77;7.73;;;;;;;23.17;100.00;100547.72;5096234;28;20444;-66
2022/08/19 10:16:05;;;;;;;14.60;8.33;;;;;;;23.20;100.00;100552.47;5096355;28;20477;-67
2022/08/19 10:18:33;;;;;;;18.00;10.03;;;;;;;23.10;100.00;100544.91;5096423;28;20421;-67
2022/08/19 10:21:08;;;;;;;12.70;9.00;;;;;;;23.12;100.00;100542.56;5096453;28;20489;-66
2022/08/19 10:23:36;;;;;;;15.00;8.13;;;;;;;23.22;100.00;100544.56;5096006;28;20803;-68
2022/08/19 10:26:05;;;;;;;14.10;8.50;;;;;;;23.20;100.00;100541.41;5096216;28;20555;-67
2022/08/19 10:28:33;;;;;;;10.23;6.77;;;;;;;23.19;100.00;100537.03;5095802;28;20522;-67
2022/08/19 10:31:06;;;;;;;14.40;8.53;;;;;;;23.38;100.00;100533.97;5096264;28;20464;-67
2022/08/19 10:33:32;;;;;;;13.20;8.50;;;;;;;23.49;100.00;100533.22;5096163;28;20498;-66
2022/08/19 10:36:00;;;;;;;14.17;8.10;;;;;;;23.34;100.00;100535.94;5096055;28;20465;-67
2022/08/19 10:38:28;;;;;;;10.73;6.60;;;;;;;23.29;100.00;100528.03;5095608;28;20443;-66
2022/08/19 10:40:55;;;;;;;16.70;7.53;;;;;;;23.42;100.00;100531.22;5095701;28;20534;-67
2022/08/19 10:43:21;;;;;;;15.27;7.30;;;;;;;23.41;100.00;100527.66;5095989;28;20440;-66
2022/08/19 10:45:53;;;;;;;10.97;7.20;;;;;;;23.43;100.00;100532.81;5095464;28;20472;-67
2022/08/19 10:48:20;;;;;;;9.13;5.90;;;;;;;23.46;100.00;100532.00;5095808;28;20469;-68
2022/08/19 10:53:30;;;;;;;9.57;6.13;;;;;;;23.70;100.00;100522.25;5095475;28;20466;-68
2022/08/19 10:58:41;;;;;;;10.03;6.87;;;;;;;23.37;100.00;100532.41;5095428;28;20400;-68
2022/08/19 11:01:09;;;;;;;9.17;6.03;;;;;;;23.19;100.00;100531.50;5095614;28;20452;-68
2022/08/19 11:03:35;;;;;;;11.37;7.07;;;;;;;23.35;100.00;100531.19;5095581;28;20436;-68
2022/08/19 11:06:04;;;;;;;11.53;6.83;;;;;;;23.38;100.00;100530.44;5095182;28;21115;-68
2022/08/19 11:08:31;;;;;;;11.97;6.43;;;;;;;23.34;100.00;100530.41;5095279;28;20480;-69
2022/08/19 11:11:01;;;;;;;10.40;6.53;;;;;;;23.34;100.00;100521.31;5095565;28;20440;-68
2022/08/19 11:13:28;;;;;;;13.13;7.27;;;;;;;23.30;100.00;100526.03;5095050;28;20498;-68
2022/08/19 11:15:59;;;;;;;9.13;5.40;;;;;;;23.36;100.00;100532.78;5094910;28;21051;-67
2022/08/19 11:18:27;;;;;;;11.90;6.63;;;;;;;23.39;100.00;100527.25;5095182;28;20514;-68
2022/08/19 11:20:54;;;;;;;9.97;6.07;;;;;;;23.45;100.00;100535.19;5094871;28;20935;-68
2022/08/19 11:23:20;;;;;;;8.90;5.40;;;;;;;23.41;100.00;100535.94;5095044;28;20444;-68
2022/08/19 11:25:47;;;;;;;11.33;6.00;;;;;;;23.51;100.00;100528.09;5095079;28;20457;-68
2022/08/19 11:28:13;;;;;;;9.13;6.07;;;;;;;23.60;100.00;100532.06;5095004;28;20482;-68
2022/08/19 11:30:40;;;;;;;8.00;5.10;;;;;;;23.67;100.00;100536.84;5094749;28;20946;-68
2022/08/19 11:33:06;;;;;;;9.37;5.67;;;;;;;23.71;100.00;100536.88;5095035;28;20445;-69
2022/08/19 11:35:34;;;;;;;9.87;5.63;;;;;;;23.68;100.00;100549.50;5094816;28;20479;-68
2022/08/19 11:38:02;;;;;;;8.13;4.80;;;;;;;23.53;100.00;100536.78;5094950;28;20432;-68
2022/08/19 11:40:28;;;;;;;7.20;5.00;;;;;;;23.56;100.00;100541.53;5094807;28;20448;-69
2022/08/19 11:42:55;;;;;;;9.03;5.23;;;;;;;23.53;100.00;100542.31;5094795;28;20440;-68
2022/08/19 11:45:22;;;;;;;9.50;5.73;;;;;;;23.50;100.00;100552.16;5094395;28;20484;-68
2022/08/19 11:47:48;;;;;;;8.57;4.70;;;;;;;23.47;100.00;100544.69;5094715;28;20807;-68
2022/08/19 11:50:16;;;;;;;6.70;5.00;;;;;;;23.32;100.00;100546.56;5093827;28;20436;-66
2022/08/19 11:52:44;;;;;;;9.33;5.87;;;;;;;23.30;100.00;100548.94;5094614;28;20436;-68